createdAt,value
2023-05-01T00:00:27.092Z,58.01
2023-05-01T00:01:26.965Z,53.66
2023-05-01T00:02:27.168Z,59.78
2023-05-01T00:03:27.104Z,55.27
2023-05-01T00:04:26.951Z,52.05
2023-05-01T00:05:27.000Z,60.91
2023-05-01T00:06:26.974Z,54.95
2023-05-01T00:07:26.930Z,54.95
2023-05-01T00:08:26.909Z,57.69
2023-05-01T00:09:26.873Z,59.30
2023-05-01T00:10:26.813Z,60.59
2023-05-01T00:11:26.878Z,58.97
2023-05-01T00:12:26.804Z,55.27
2023-05-01T00:13:26.788Z,54.14
2023-05-01T00:14:26.842Z,54.46
2023-05-01T00:15:26.813Z,54.14
2023-05-01T00:16:26.847Z,57.85
2023-05-01T00:17:26.852Z,54.62
2023-05-01T00:18:26.764Z,52.21
2023-05-01T00:19:26.838Z,57.85
2023-05-01T00:20:27.207Z,55.27
2023-05-01T00:21:26.883Z,53.98
2023-05-01T00:22:26.825Z,53.82
2023-05-01T00:23:26.913Z,57.36
2023-05-01T00:24:26.848Z,57.85
2023-05-01T00:25:26.878Z,52.21
2023-05-01T00:26:26.843Z,56.07
2023-05-01T00:27:26.767Z,56.07
2023-05-01T00:28:26.788Z,53.01
2023-05-01T00:29:26.760Z,57.36
2023-05-01T00:30:26.793Z,56.24
2023-05-01T00:31:26.817Z,56.24
2023-05-01T00:32:26.816Z,55.75
2023-05-01T00:33:26.810Z,59.46
2023-05-01T00:34:26.710Z,62.04
2023-05-01T00:35:27.631Z,60.26
2023-05-01T00:36:26.747Z,56.72
2023-05-01T00:37:26.676Z,53.01
2023-05-01T00:38:26.615Z,51.72
2023-05-01T00:39:26.652Z,51.24
2023-05-01T00:40:26.582Z,51.72
2023-05-01T00:41:26.608Z,60.75
2023-05-01T00:42:26.679Z,52.53
2023-05-01T00:43:26.703Z,52.85
2023-05-01T00:44:26.755Z,61.23
2023-05-01T00:45:26.717Z,53.82
2023-05-01T00:46:26.839Z,58.49
2023-05-01T00:47:26.751Z,58.97
2023-05-01T00:48:26.773Z,61.39
2023-05-01T00:49:26.616Z,55.43
2023-05-01T00:50:26.712Z,56.56
2023-05-01T00:51:26.654Z,52.85
2023-05-01T00:52:26.593Z,58.49
2023-05-01T00:53:26.679Z,53.01
2023-05-01T00:54:26.611Z,52.53
2023-05-01T00:55:26.600Z,53.01
2023-05-01T00:56:26.601Z,55.59
2023-05-01T00:57:26.526Z,57.69
2023-05-01T00:58:26.582Z,59.14
2023-05-01T00:59:27.136Z,54.30
2023-05-01T01:00:26.483Z,58.17
2023-05-01T01:01:26.554Z,59.94
2023-05-01T01:02:26.606Z,56.56
2023-05-01T01:03:26.545Z,57.69
2023-05-01T01:04:26.620Z,55.11
2023-05-01T01:05:26.591Z,59.30
2023-05-01T01:06:27.598Z,62.36
2023-05-01T01:07:26.617Z,57.69
2023-05-01T01:08:26.491Z,60.10
2023-05-01T01:09:26.590Z,52.37
2023-05-01T01:10:26.460Z,52.53
2023-05-01T01:11:26.421Z,59.30
2023-05-01T01:12:26.421Z,53.82
2023-05-01T01:13:26.458Z,52.21
2023-05-01T01:14:26.477Z,59.14
2023-05-01T01:15:26.403Z,62.52
2023-05-01T01:16:26.386Z,64.45
2023-05-01T01:17:26.363Z,60.10
2023-05-01T01:18:26.349Z,58.01
2023-05-01T01:19:26.343Z,52.85
2023-05-01T01:20:26.855Z,53.66
2023-05-01T01:21:26.399Z,56.88
2023-05-01T01:22:26.396Z,53.01
2023-05-01T01:23:26.425Z,54.14
2023-05-01T01:24:26.369Z,57.36
2023-05-01T01:25:26.428Z,57.36
2023-05-01T01:26:26.472Z,53.50
2023-05-01T01:27:26.372Z,56.07
2023-05-01T01:28:26.386Z,57.36
2023-05-01T01:29:26.369Z,52.69
2023-05-01T01:30:26.442Z,56.40
2023-05-01T01:31:26.441Z,52.21
2023-05-01T01:32:26.444Z,53.50
2023-05-01T01:33:26.426Z,55.75
2023-05-01T01:34:26.222Z,53.01
2023-05-01T01:35:26.270Z,55.91
2023-05-01T01:36:26.223Z,55.75
2023-05-01T01:37:26.320Z,52.85
2023-05-01T01:38:26.192Z,58.49
2023-05-01T01:39:26.216Z,61.39
2023-05-01T01:40:26.210Z,57.20
2023-05-01T01:41:26.241Z,57.52
2023-05-01T01:42:26.385Z,52.37
2023-05-01T01:43:26.256Z,51.40
2023-05-01T01:44:26.243Z,51.24
2023-05-01T01:45:26.263Z,62.04
2023-05-01T01:46:26.284Z,60.91
2023-05-01T01:47:26.254Z,60.75
2023-05-01T01:48:26.286Z,58.81
2023-05-01T01:49:26.265Z,56.56
2023-05-01T01:50:27.230Z,52.05
2023-05-01T01:51:26.249Z,56.56
2023-05-01T01:52:26.170Z,54.79
2023-05-01T01:53:26.181Z,55.43
2023-05-01T01:54:26.083Z,58.17
2023-05-01T01:55:26.109Z,57.20
2023-05-01T01:56:26.165Z,54.14
2023-05-01T01:57:26.067Z,53.50
2023-05-01T01:58:26.146Z,57.36
2023-05-01T01:59:26.120Z,51.72
2023-05-01T02:00:26.153Z,51.88
2023-05-01T02:01:26.083Z,59.62
2023-05-01T02:02:26.215Z,51.72
2023-05-01T02:03:26.238Z,59.14
2023-05-01T02:04:26.182Z,58.17
2023-05-01T02:05:26.113Z,57.04
2023-05-01T02:06:26.178Z,54.79
2023-05-01T02:07:26.092Z,53.66
2023-05-01T02:08:26.170Z,50.43
2023-05-01T02:09:26.098Z,55.43
2023-05-01T02:10:26.148Z,50.76
2023-05-01T02:11:26.023Z,54.46
2023-05-01T02:12:26.074Z,53.01
2023-05-01T02:13:26.041Z,50.27
2023-05-01T02:14:26.069Z,57.20
2023-05-01T02:15:26.112Z,55.43
2023-05-01T02:16:26.079Z,53.98
2023-05-01T02:17:26.062Z,54.46
2023-05-01T02:18:26.085Z,57.52
2023-05-01T02:19:26.047Z,56.40
2023-05-01T02:20:26.065Z,51.72
2023-05-01T02:21:26.213Z,50.92
2023-05-01T02:22:25.874Z,51.08
2023-05-01T02:23:25.933Z,52.69
2023-05-01T02:24:25.936Z,52.37
2023-05-01T02:25:26.605Z,58.49
2023-05-01T02:26:25.926Z,59.14
2023-05-01T02:27:25.925Z,59.94
2023-05-01T02:28:25.869Z,58.97
2023-05-01T02:29:25.820Z,61.23
2023-05-01T02:30:25.947Z,60.10
2023-05-01T02:31:25.987Z,51.24
2023-05-01T02:32:25.912Z,51.24
2023-05-01T02:33:25.934Z,51.72
2023-05-01T02:34:25.933Z,58.65
2023-05-01T02:35:25.880Z,51.56
2023-05-01T02:36:25.914Z,58.01
2023-05-01T02:37:25.937Z,58.97
2023-05-01T02:38:25.917Z,56.72
2023-05-01T02:39:25.893Z,61.55
2023-05-01T02:40:25.871Z,57.04
2023-05-01T02:41:26.861Z,57.85
2023-05-01T02:42:25.806Z,59.78
2023-05-01T02:43:25.820Z,51.40
2023-05-01T02:44:25.739Z,52.05
2023-05-01T02:45:25.821Z,58.81
2023-05-01T02:46:25.972Z,57.85
2023-05-01T02:47:25.839Z,52.21
2023-05-01T02:48:25.776Z,59.14
2023-05-01T02:49:25.713Z,57.20
2023-05-01T02:50:25.742Z,52.21
2023-05-01T02:51:25.753Z,59.46
2023-05-01T02:52:26.799Z,58.81
2023-05-01T02:53:25.777Z,59.14
2023-05-01T02:54:25.825Z,52.53
2023-05-01T02:55:25.783Z,57.36
2023-05-01T02:56:25.759Z,57.69
2023-05-01T02:57:25.817Z,56.88
2023-05-01T02:58:25.834Z,56.56
2023-05-01T02:59:25.746Z,59.30
2023-05-01T03:00:25.739Z,62.68
2023-05-01T03:01:25.731Z,59.62
2023-05-01T03:02:25.771Z,58.33
2023-05-01T03:03:25.752Z,60.91
2023-05-01T03:04:25.897Z,61.39
2023-05-01T03:05:25.724Z,59.94
2023-05-01T03:06:25.666Z,62.68
2023-05-01T03:07:25.605Z,66.23
2023-05-01T03:08:25.603Z,63.97
2023-05-01T03:09:25.688Z,64.78
2023-05-01T03:10:25.684Z,66.71
2023-05-01T03:11:25.586Z,65.58
2023-05-01T03:12:25.554Z,65.74
2023-05-01T03:13:25.777Z,64.94
2023-05-01T03:14:25.630Z,63.33
2023-05-01T03:15:25.734Z,65.74
2023-05-01T03:16:26.653Z,64.94
2023-05-01T03:17:25.798Z,66.06
2023-05-01T03:18:25.617Z,66.23
2023-05-01T03:19:25.679Z,68.80
2023-05-01T03:20:25.929Z,70.09
2023-05-01T03:21:25.567Z,71.06
2023-05-01T03:22:25.607Z,72.35
2023-05-01T03:23:25.554Z,74.28
2023-05-01T03:24:25.461Z,73.48
2023-05-01T03:25:25.517Z,72.83
2023-05-01T03:26:25.752Z,71.87
2023-05-01T03:27:25.476Z,72.83
2023-05-01T03:28:25.628Z,72.99
2023-05-01T03:29:25.436Z,71.87
2023-05-01T03:30:25.450Z,71.22
2023-05-01T03:31:25.753Z,72.67
2023-05-01T03:32:25.867Z,73.48
2023-05-01T03:33:25.543Z,71.06
2023-05-01T03:34:25.541Z,72.35
2023-05-01T03:35:25.600Z,72.99
2023-05-01T03:36:25.506Z,72.03
2023-05-01T03:37:25.565Z,75.73
2023-05-01T03:38:25.481Z,70.09
2023-05-01T03:39:25.467Z,69.77
2023-05-01T03:40:25.405Z,71.22
2023-05-01T03:41:25.440Z,74.77
2023-05-01T03:42:25.460Z,69.29
2023-05-01T03:43:25.418Z,69.13
2023-05-01T03:44:25.484Z,69.13
2023-05-01T03:45:25.347Z,68.00
2023-05-01T03:46:25.348Z,70.58
2023-05-01T03:47:25.334Z,67.84
2023-05-01T03:48:25.467Z,67.84
2023-05-01T03:49:25.348Z,66.87
2023-05-01T03:50:25.288Z,67.03
2023-05-01T03:51:25.283Z,67.68
2023-05-01T03:52:25.252Z,67.51
2023-05-01T03:53:25.340Z,68.00
2023-05-01T03:54:25.328Z,67.84
2023-05-01T03:55:25.349Z,67.51
2023-05-01T03:56:25.318Z,69.13
2023-05-01T03:57:25.331Z,67.68
2023-05-01T03:58:25.405Z,69.13
2023-05-01T03:59:25.311Z,68.48
2023-05-01T04:00:25.299Z,67.19
2023-05-01T04:01:25.307Z,66.55
2023-05-01T04:02:25.404Z,68.00
2023-05-01T04:03:25.480Z,67.35
2023-05-01T04:04:25.391Z,69.13
2023-05-01T04:05:25.318Z,70.90
2023-05-01T04:06:25.360Z,68.16
2023-05-01T04:07:25.351Z,66.55
2023-05-01T04:08:25.211Z,68.64
2023-05-01T04:09:25.254Z,67.35
2023-05-01T04:10:25.209Z,75.57
2023-05-01T04:11:25.176Z,73.48
2023-05-01T04:12:25.217Z,71.38
2023-05-01T04:13:25.144Z,65.58
2023-05-01T04:14:25.112Z,74.12
2023-05-01T04:15:25.183Z,72.03
2023-05-01T04:16:25.215Z,75.57
2023-05-01T04:17:25.102Z,75.25
2023-05-01T04:18:25.110Z,69.61
2023-05-01T04:19:25.170Z,67.68
2023-05-01T04:20:25.217Z,69.13
2023-05-01T04:21:25.156Z,62.84
2023-05-01T04:22:25.163Z,70.09
2023-05-01T04:23:25.180Z,73.80
2023-05-01T04:24:25.187Z,69.93
2023-05-01T04:25:25.181Z,68.32
2023-05-01T04:26:25.084Z,63.65
2023-05-01T04:27:26.151Z,67.68
2023-05-01T04:28:25.090Z,68.64
2023-05-01T04:29:25.128Z,69.13
2023-05-01T04:30:25.115Z,67.68
2023-05-01T04:31:25.559Z,65.58
2023-05-01T04:32:25.144Z,67.03
2023-05-01T04:33:25.062Z,65.10
2023-05-01T04:34:25.063Z,69.29
2023-05-01T04:35:25.100Z,68.96
2023-05-01T04:36:24.979Z,67.19
2023-05-01T04:37:25.048Z,69.13
2023-05-01T04:38:25.163Z,69.61
2023-05-01T04:39:24.953Z,70.90
2023-05-01T04:40:25.099Z,65.74
2023-05-01T04:41:25.000Z,67.35
2023-05-01T04:42:25.086Z,61.87
2023-05-01T04:43:25.065Z,70.09
2023-05-01T04:44:25.020Z,73.48
2023-05-01T04:45:25.020Z,70.58
2023-05-01T04:46:25.025Z,71.54
2023-05-01T04:47:24.995Z,76.38
2023-05-01T04:48:25.026Z,62.04
2023-05-01T04:49:24.965Z,61.71
2023-05-01T04:50:24.988Z,62.04
2023-05-01T04:51:24.984Z,60.42
2023-05-01T04:52:24.948Z,66.71
2023-05-01T04:53:24.998Z,65.58
2023-05-01T04:54:24.916Z,66.55
2023-05-01T04:55:24.955Z,64.61
2023-05-01T04:56:24.891Z,66.87
2023-05-01T04:57:24.825Z,68.80
2023-05-01T04:58:24.871Z,66.06
2023-05-01T04:59:24.850Z,64.61
2023-05-01T05:00:24.884Z,66.71
2023-05-01T05:01:24.989Z,64.78
2023-05-01T05:02:25.011Z,69.77
2023-05-01T05:03:24.993Z,64.45
2023-05-01T05:04:24.963Z,69.13
2023-05-01T05:05:24.895Z,69.93
2023-05-01T05:06:24.980Z,66.06
2023-05-01T05:07:24.877Z,59.14
2023-05-01T05:08:24.842Z,58.97
2023-05-01T05:09:24.847Z,63.65
2023-05-01T05:10:24.921Z,70.58
2023-05-01T05:11:24.840Z,68.64
2023-05-01T05:12:24.815Z,60.10
2023-05-01T05:13:24.832Z,59.94
2023-05-01T05:14:24.819Z,60.91
2023-05-01T05:15:24.744Z,58.01
2023-05-01T05:16:24.760Z,58.97
2023-05-01T05:17:24.774Z,60.10
2023-05-01T05:18:24.732Z,62.84
2023-05-01T05:19:24.743Z,61.07
2023-05-01T05:20:24.678Z,67.84
2023-05-01T05:21:24.725Z,67.84
2023-05-01T05:22:24.836Z,65.42
2023-05-01T05:23:24.800Z,58.33
2023-05-01T05:24:24.752Z,61.23
2023-05-01T05:25:24.747Z,67.35
2023-05-01T05:26:24.832Z,68.48
2023-05-01T05:27:24.797Z,62.52
2023-05-01T05:28:24.778Z,56.07
2023-05-01T05:29:24.739Z,66.55
2023-05-01T05:30:27.229Z,66.06
2023-05-01T05:31:24.669Z,62.52
2023-05-01T05:32:24.999Z,68.96
2023-05-01T05:33:24.738Z,69.61
2023-05-01T05:34:24.639Z,69.13
2023-05-01T05:35:24.558Z,68.00
2023-05-01T05:36:24.656Z,61.87
2023-05-01T05:37:24.609Z,60.10
2023-05-01T05:38:42.596Z,60.26
2023-05-01T05:39:25.569Z,56.07
2023-05-01T05:40:24.557Z,58.17
2023-05-01T05:41:24.655Z,57.85
2023-05-01T05:42:24.611Z,59.14
2023-05-01T05:43:27.358Z,58.81
2023-05-01T05:44:25.595Z,59.94
2023-05-01T05:45:24.684Z,60.75
2023-05-01T05:46:24.617Z,55.59
2023-05-01T05:47:24.626Z,59.46
2023-05-01T05:48:24.688Z,62.04
2023-05-01T05:49:24.608Z,58.17
2023-05-01T05:50:24.632Z,56.40
2023-05-01T05:51:24.508Z,60.91
2023-05-01T05:52:24.481Z,54.95
2023-05-01T05:53:26.017Z,56.88
2023-05-01T05:54:25.511Z,57.04
2023-05-01T05:55:24.452Z,59.30
2023-05-01T05:56:24.554Z,61.23
2023-05-01T05:57:24.547Z,57.20
2023-05-01T05:58:24.560Z,55.75
2023-05-01T05:59:24.561Z,58.65
2023-05-01T06:00:24.523Z,60.75
2023-05-01T06:01:24.494Z,61.55
2023-05-01T06:02:24.539Z,62.20
2023-05-01T06:03:24.597Z,64.29
2023-05-01T06:04:24.514Z,64.29
2023-05-01T06:05:24.576Z,64.45
2023-05-01T06:06:24.504Z,66.71
2023-05-01T06:07:24.455Z,67.84
2023-05-01T06:08:24.366Z,66.39
2023-05-01T06:09:24.373Z,60.10
2023-05-01T06:10:24.444Z,59.46
2023-05-01T06:11:24.354Z,62.20
2023-05-01T06:12:24.457Z,60.10
2023-05-01T06:13:24.420Z,59.30
2023-05-01T06:14:24.489Z,58.81
2023-05-01T06:15:24.385Z,66.55
2023-05-01T06:16:24.479Z,64.45
2023-05-01T06:17:24.357Z,66.39
2023-05-01T06:18:24.421Z,66.87
2023-05-01T06:19:24.412Z,64.94
2023-05-01T06:20:24.406Z,67.19
2023-05-01T06:21:24.417Z,66.55
2023-05-01T06:22:24.370Z,66.23
2023-05-01T06:23:25.405Z,59.46
2023-05-01T06:24:24.335Z,65.58
2023-05-01T06:25:24.569Z,68.16
2023-05-01T06:26:24.241Z,63.65
2023-05-01T06:27:24.282Z,58.65
2023-05-01T06:28:24.349Z,64.13
2023-05-01T06:29:24.194Z,60.59
2023-05-01T06:30:24.210Z,64.45
2023-05-01T06:31:24.266Z,68.16
2023-05-01T06:32:24.479Z,67.51
2023-05-01T06:33:24.191Z,62.52
2023-05-01T06:34:24.264Z,67.84
2023-05-01T06:35:24.311Z,66.87
2023-05-01T06:36:24.270Z,62.20
2023-05-01T06:37:31.010Z,64.45
2023-05-01T06:38:26.847Z,65.26
2023-05-01T06:39:24.246Z,65.74
2023-05-01T06:40:24.235Z,69.77
2023-05-01T06:41:24.597Z,63.33
2023-05-01T06:42:24.198Z,77.02
2023-05-01T06:43:24.232Z,65.58
2023-05-01T06:44:24.276Z,66.55
2023-05-01T06:45:24.204Z,65.74
2023-05-01T06:46:24.267Z,64.45
2023-05-01T06:47:24.178Z,61.55
2023-05-01T06:48:24.075Z,64.61
2023-05-01T06:49:24.103Z,66.55
2023-05-01T06:50:24.150Z,64.29
2023-05-01T06:51:24.164Z,64.78
2023-05-01T06:52:24.444Z,67.35
2023-05-01T06:53:24.193Z,68.96
2023-05-01T06:54:24.160Z,66.87
2023-05-01T06:55:24.116Z,67.84
2023-05-01T06:56:24.215Z,71.87
2023-05-01T06:57:24.252Z,69.45
2023-05-01T06:58:24.706Z,67.84
2023-05-01T06:59:25.242Z,63.97
2023-05-01T07:00:24.171Z,58.97
2023-05-01T07:01:24.149Z,59.46
2023-05-01T07:02:24.171Z,60.10
2023-05-01T07:03:24.109Z,59.14
2023-05-01T07:04:23.968Z,59.14
2023-05-01T07:05:24.071Z,60.75
2023-05-01T07:06:24.254Z,60.91
2023-05-01T07:07:23.968Z,65.90
2023-05-01T07:08:24.000Z,59.30
2023-05-01T07:09:24.089Z,59.14
2023-05-01T07:10:24.107Z,59.94
2023-05-01T07:11:24.157Z,59.30
2023-05-01T07:12:24.367Z,60.75
2023-05-01T07:13:23.994Z,64.94
2023-05-01T07:14:23.999Z,65.26
2023-05-01T07:15:24.030Z,63.16
2023-05-01T07:16:24.106Z,67.19
2023-05-01T07:17:24.086Z,63.81
2023-05-01T07:18:25.161Z,69.13
2023-05-01T07:19:24.033Z,66.55
2023-05-01T07:20:23.951Z,65.74
2023-05-01T07:21:24.027Z,57.69
2023-05-01T07:22:24.124Z,64.78
2023-05-01T07:23:23.902Z,63.33
2023-05-01T07:24:23.924Z,62.20
2023-05-01T07:25:24.955Z,57.69
2023-05-01T07:26:24.933Z,61.55
2023-05-01T07:27:23.792Z,65.26
2023-05-01T07:28:23.886Z,65.42
2023-05-01T07:29:23.861Z,70.09
2023-05-01T07:30:24.109Z,61.23
2023-05-01T07:31:23.947Z,57.69
2023-05-01T07:32:23.905Z,58.81
2023-05-01T07:33:23.950Z,63.97
2023-05-01T07:34:23.929Z,64.13
2023-05-01T07:35:23.891Z,62.84
2023-05-01T07:36:23.868Z,61.55
2023-05-01T07:37:24.231Z,61.23
2023-05-01T07:38:23.931Z,63.97
2023-05-01T07:39:24.977Z,62.20
2023-05-01T07:40:24.363Z,74.93
2023-05-01T07:41:24.473Z,61.23
2023-05-01T07:42:24.085Z,60.26
2023-05-01T07:43:24.447Z,63.49
2023-05-01T07:44:24.051Z,60.59
2023-05-01T07:45:23.984Z,63.81
2023-05-01T07:46:23.862Z,59.30
2023-05-01T07:47:23.847Z,60.26
2023-05-01T07:48:23.888Z,60.91
2023-05-01T07:49:24.101Z,63.16
2023-05-01T07:50:24.180Z,58.97
2023-05-01T07:51:24.014Z,59.94
2023-05-01T07:52:24.338Z,71.06
2023-05-01T07:53:23.839Z,58.81
2023-05-01T07:54:23.921Z,60.26
2023-05-01T07:55:23.713Z,65.10
2023-05-01T07:56:23.681Z,64.29
2023-05-01T07:57:23.743Z,59.78
2023-05-01T07:58:23.671Z,60.75
2023-05-01T07:59:24.022Z,79.28
2023-05-01T08:00:24.264Z,57.85
2023-05-01T08:01:24.671Z,61.07
2023-05-01T08:02:23.672Z,62.68
2023-05-01T08:03:23.825Z,65.10
2023-05-01T08:04:23.640Z,60.75
2023-05-01T08:05:24.128Z,61.23
2023-05-01T08:06:23.765Z,61.71
2023-05-01T08:07:23.548Z,60.59
2023-05-01T08:08:23.561Z,64.78
2023-05-01T08:09:23.754Z,64.78
2023-05-01T08:10:23.742Z,65.74
2023-05-01T08:11:23.726Z,62.20
2023-05-01T08:12:23.694Z,58.17
2023-05-01T08:13:24.260Z,63.81
2023-05-01T08:14:23.776Z,65.58
2023-05-01T08:15:24.177Z,64.61
2023-05-01T08:16:23.890Z,63.33
2023-05-01T08:17:23.605Z,65.90
2023-05-01T08:18:23.992Z,67.35
2023-05-01T08:19:24.030Z,64.13
2023-05-01T08:20:24.155Z,65.90
2023-05-01T08:21:23.776Z,61.87
2023-05-01T08:22:23.625Z,57.36
2023-05-01T08:23:23.587Z,61.07
2023-05-01T08:24:23.585Z,62.04
2023-05-01T08:25:23.607Z,66.06
2023-05-01T08:26:23.989Z,59.46
2023-05-01T08:27:23.382Z,62.36
2023-05-01T08:28:23.484Z,61.55
2023-05-01T08:29:23.401Z,65.42
2023-05-01T08:30:24.397Z,65.42
2023-05-01T08:31:23.514Z,67.51
2023-05-01T08:32:23.623Z,57.20
2023-05-01T08:33:23.480Z,58.17
2023-05-01T08:34:23.492Z,59.94
2023-05-01T08:35:23.575Z,79.28
2023-05-01T08:36:23.472Z,58.81
2023-05-01T08:37:24.076Z,63.00
2023-05-01T08:38:23.380Z,56.72
2023-05-01T08:39:23.833Z,57.36
2023-05-01T08:40:23.466Z,57.36
2023-05-01T08:41:24.500Z,62.52
2023-05-01T08:42:24.002Z,64.94
2023-05-01T08:43:24.150Z,57.69
2023-05-01T08:44:23.963Z,58.65
2023-05-01T08:45:23.725Z,60.42
2023-05-01T08:46:29.791Z,59.46
2023-05-01T08:47:25.891Z,55.43
2023-05-01T08:48:23.759Z,57.04
2023-05-01T08:49:23.956Z,59.94
2023-05-01T08:50:23.906Z,62.04
2023-05-01T08:51:23.438Z,57.04
2023-05-01T08:52:23.303Z,56.88
2023-05-01T08:53:23.407Z,60.75
2023-05-01T08:54:23.320Z,60.10
2023-05-01T08:55:23.330Z,58.65
2023-05-01T08:56:23.342Z,57.04
2023-05-01T08:57:23.290Z,59.46
2023-05-01T08:58:23.309Z,61.07
2023-05-01T08:59:23.431Z,59.78
2023-05-01T09:00:23.269Z,59.30
2023-05-01T09:01:23.276Z,58.65
2023-05-01T09:02:23.248Z,58.97
2023-05-01T09:03:23.189Z,60.75
2023-05-01T09:04:23.304Z,60.10
2023-05-01T09:05:23.142Z,59.30
2023-05-01T09:06:23.270Z,69.61
2023-05-01T09:07:23.171Z,60.42
2023-05-01T09:08:23.119Z,60.91
2023-05-01T09:09:23.236Z,57.69
2023-05-01T09:10:23.224Z,59.94
2023-05-01T09:11:23.080Z,59.62
2023-05-01T09:12:23.249Z,59.30
2023-05-01T09:13:23.138Z,63.33
2023-05-01T09:14:23.180Z,64.61
2023-05-01T09:15:23.182Z,60.59
2023-05-01T09:16:23.294Z,65.26
2023-05-01T09:17:55.446Z,58.49
2023-05-01T09:18:22.981Z,56.72
2023-05-01T09:19:55.142Z,65.58
2023-05-01T09:23:33.219Z,56.72
2023-05-01T09:28:08.706Z,59.46
2023-05-01T09:29:14.699Z,60.10
2023-05-01T09:29:42.682Z,60.42
2023-05-01T09:30:42.639Z,59.94
2023-05-01T09:31:42.721Z,60.42
2023-05-01T09:46:00.251Z,59.78
2023-05-01T09:55:06.732Z,60.42
2023-05-01T09:59:08.318Z,55.91
2023-05-01T09:59:36.393Z,55.11
2023-05-01T10:01:09.946Z,64.45
2023-05-01T10:01:36.434Z,53.33
2023-05-01T10:02:36.418Z,57.04
2023-05-01T10:03:36.373Z,57.52
2023-05-01T10:04:36.750Z,65.74
2023-05-01T10:05:36.378Z,80.73
2023-05-01T10:49:36.562Z,55.91
2023-05-01T10:50:36.649Z,58.17
2023-05-01T10:51:36.623Z,55.43
2023-05-01T10:52:36.671Z,54.95
2023-05-01T10:53:36.554Z,59.78
2023-05-01T10:58:33.964Z,61.23
2023-05-01T11:36:50.707Z,54.46
2023-05-01T11:37:17.596Z,55.11
2023-05-01T11:38:17.724Z,60.26
2023-05-01T11:39:17.591Z,57.36
2023-05-01T11:40:17.686Z,56.07
2023-05-01T11:45:22.439Z,54.79
2023-05-01T12:02:14.319Z,56.24
2023-05-01T12:06:12.721Z,53.01
2023-05-01T12:07:13.128Z,58.81
2023-05-01T12:08:14.164Z,52.85
2023-05-01T12:09:14.408Z,57.69
2023-05-01T12:14:37.010Z,56.56
2023-05-01T12:15:36.945Z,54.62
2023-05-01T12:16:36.854Z,53.66
2023-05-01T12:17:37.320Z,59.14
2023-05-01T12:19:08.878Z,59.14
2023-05-01T12:19:36.681Z,54.30
2023-05-01T12:57:20.754Z,54.62
2023-05-01T12:58:21.879Z,56.07
2023-05-01T13:19:05.587Z,56.56
2023-05-01T15:20:42.739Z,60.59
2023-05-01T15:21:42.973Z,60.26
2023-05-01T18:08:54.129Z,61.39
2023-05-01T22:26:34.675Z,58.97
2023-05-01T22:27:35.915Z,54.30
2023-05-01T22:31:56.479Z,45.60
2023-05-01T22:32:56.281Z,48.98
2023-05-01T22:33:56.354Z,53.17
2023-05-01T22:34:56.247Z,54.95
2023-05-01T22:35:56.443Z,47.05
2023-05-01T22:36:56.328Z,56.88
2023-05-01T22:37:56.237Z,57.36
2023-05-01T22:38:56.125Z,55.11
2023-05-01T22:39:56.192Z,51.88
2023-05-01T22:40:56.124Z,52.21
2023-05-01T22:41:56.169Z,50.11
2023-05-01T22:42:56.106Z,49.31
2023-05-01T22:43:56.153Z,49.95
2023-05-01T22:44:56.153Z,48.34
2023-05-01T22:45:56.133Z,47.70
2023-05-01T22:46:56.217Z,47.05
2023-05-01T22:47:56.150Z,52.05
2023-05-01T22:48:56.176Z,59.78
2023-05-01T22:49:56.193Z,55.27
2023-05-01T22:50:56.128Z,54.30
2023-05-01T22:51:56.107Z,52.53
2023-05-01T22:52:56.178Z,46.73
2023-05-01T22:53:56.159Z,46.57
2023-05-01T22:54:56.158Z,46.89
2023-05-01T22:55:56.075Z,55.27
2023-05-01T22:56:57.083Z,48.18
2023-05-01T22:57:56.127Z,49.47
2023-05-01T22:58:56.159Z,51.56
2023-05-01T22:59:56.102Z,53.82
2023-05-01T23:01:00.887Z,56.72
2023-05-01T23:01:57.107Z,51.88
2023-05-01T23:02:55.997Z,51.56
2023-05-01T23:03:56.251Z,53.17
2023-05-01T23:04:56.067Z,47.21
2023-05-01T23:05:56.014Z,47.05
2023-05-01T23:06:56.019Z,49.31
2023-05-01T23:07:56.159Z,59.30
2023-05-01T23:08:56.098Z,61.71
2023-05-01T23:09:56.012Z,51.24
2023-05-01T23:10:55.976Z,52.21
2023-05-01T23:11:55.977Z,49.47
2023-05-01T23:12:56.011Z,53.33
2023-05-01T23:13:55.972Z,47.70
2023-05-01T23:14:56.073Z,47.70
2023-05-01T23:15:56.004Z,53.98
2023-05-01T23:16:55.993Z,61.39
2023-05-01T23:17:55.948Z,50.43
2023-05-01T23:18:55.870Z,51.56
2023-05-01T23:19:55.985Z,61.23
2023-05-01T23:20:55.822Z,59.94
2023-05-01T23:21:55.864Z,59.14
2023-05-01T23:26:06.149Z,58.01
2023-05-01T23:27:06.220Z,49.63
2023-05-01T23:28:06.163Z,49.95
2023-05-01T23:29:06.292Z,49.15
2023-05-01T23:30:06.451Z,55.59
2023-05-01T23:31:06.281Z,57.04
2023-05-01T23:32:06.380Z,60.91
2023-05-01T23:33:06.308Z,60.75
2023-05-01T23:34:06.207Z,64.61
2023-05-01T23:35:06.241Z,53.17
2023-05-01T23:36:06.243Z,57.20
2023-05-01T23:37:06.206Z,54.46
2023-05-01T23:38:06.305Z,55.11
2023-05-01T23:39:06.224Z,54.46
2023-05-01T23:40:06.207Z,55.75
2023-05-01T23:41:06.230Z,57.04
2023-05-01T23:42:06.412Z,49.95
2023-05-01T23:43:06.279Z,61.71
2023-05-01T23:44:06.257Z,50.11
2023-05-01T23:45:06.133Z,58.65
2023-05-01T23:46:06.097Z,63.65
2023-05-01T23:47:06.249Z,58.33
2023-05-01T23:48:06.087Z,60.91
2023-05-01T23:49:06.083Z,58.65
2023-05-01T23:50:06.102Z,58.65
2023-05-01T23:51:05.995Z,65.90
2023-05-01T23:52:06.130Z,58.65
2023-05-01T23:53:06.085Z,52.05
2023-05-01T23:57:04.792Z,48.02
2023-05-01T23:58:04.854Z,52.21
2023-05-01T23:59:04.710Z,60.26
